Time;durP1;ratioP1;P1;durP2;ratioP2;P2;SDS_P1;SDS_P2;PMS_P1;PMS_P2;Temp;Humidity;BMP_temperature;BMP_pressure;BME280_temperature;BME280_humidity;BME280_pressure;Samples;Min_cycle;Max_cycle;Signal;HPM_P1;HPM_P2
2023/08/11 00:01:49;;;;;;;;;12.00;12.00;;;;;17.45;100.00;99312.00;6297342;27;96320;-65
2023/08/11 00:04:52;;;;;;;;;11.60;11.00;;;;;17.49;100.00;99321.34;6295975;27;96422;-65
2023/08/11 00:07:55;;;;;;;;;12.33;11.33;;;;;17.55;100.00;99310.22;6297240;27;96291;-65
2023/08/11 00:10:58;;;;;;;;;11.80;11.20;;;;;17.59;100.00;99316.03;6314275;27;96330;-66
2023/08/11 00:14:03;;;;;;;;;10.20;10.00;;;;;17.55;100.00;99309.38;6294612;27;99214;-66
2023/08/11 00:17:06;;;;;;;;;13.00;12.00;;;;;17.63;100.00;99314.41;6295398;27;97455;-65
2023/08/11 00:20:10;;;;;;;;;11.00;11.00;;;;;17.62;100.00;99310.88;6313369;27;96327;-65
2023/08/11 00:23:14;;;;;;;;;11.00;11.00;;;;;17.67;100.00;99310.91;6290522;27;96739;-65
2023/08/11 00:26:17;;;;;;;;;10.40;10.40;;;;;17.73;100.00;99314.53;6304104;27;96527;-65
2023/08/11 00:29:22;;;;;;;;;10.25;9.00;;;;;17.80;100.00;99326.03;6306960;27;96340;-65
2023/08/11 00:32:25;;;;;;;;;11.40;11.00;;;;;17.83;100.00;99313.81;6295624;27;96340;-65
2023/08/11 00:35:28;;;;;;;;;11.00;10.60;;;;;17.83;100.00;99314.63;6290070;27;96672;-65
2023/08/11 00:38:38;;;;;;;;;11.00;10.00;;;;;17.83;100.00;99308.34;6318437;27;96449;-65
2023/08/11 00:41:41;;;;;;;;;10.40;10.00;;;;;17.85;100.00;99314.34;6317255;27;96315;-65
2023/08/11 00:44:45;;;;;;;;;11.00;11.00;;;;;17.88;100.00;99311.94;6300329;27;96344;-65
2023/08/11 00:47:49;;;;;;;;;9.60;9.60;;;;;17.96;100.00;99319.66;6295152;27;96479;-65
2023/08/11 00:50:57;;;;;;;;;10.60;10.60;;;;;18.02;100.00;99309.59;6297986;27;96781;-65
2023/08/11 00:54:01;;;;;;;;;10.00;10.00;;;;;18.02;100.00;99313.16;6316384;27;97001;-65
2023/08/11 00:57:04;;;;;;;;;12.25;11.75;;;;;17.99;100.00;99312.84;6316144;27;96174;-65
2023/08/11 01:00:13;;;;;;;;;14.00;13.00;;;;;18.01;100.00;99319.69;6299614;27;96391;-65
2023/08/11 01:03:17;;;;;;;;;10.50;10.50;;;;;17.97;100.00;99318.56;6308168;27;96395;-65
2023/08/11 01:06:28;;;;;;;;;11.25;11.25;;;;;17.93;100.00;99311.16;6307512;27;96342;-65
2023/08/11 01:09:38;;;;;;;;;11.00;10.40;;;;;17.88;100.00;99309.22;6311784;27;97445;-66
2023/08/11 01:12:52;;;;;;;;;10.80;9.00;;;;;17.81;100.00;99313.22;6317813;27;98461;-65
2023/08/11 01:15:59;;;;;;;;;10.50;10.00;;;;;17.77;100.00;99303.91;6300173;27;97017;-65
2023/08/11 01:19:07;;;;;;;;;11.60;11.00;;;;;17.69;100.00;99305.22;6315092;27;96653;-65
2023/08/11 01:22:14;;;;;;;;;11.25;10.25;;;;;17.69;100.00;99306.00;6296822;27;96351;-65
2023/08/11 01:25:20;;;;;;;;;7.40;7.40;;;;;17.62;100.00;99304.59;6304309;27;96288;-65
2023/08/11 01:28:23;;;;;;;;;11.25;10.75;;;;;17.56;100.00;99305.56;6308105;27;96269;-65
2023/08/11 01:31:27;;;;;;;;;11.50;11.00;;;;;17.46;100.00;99306.28;6314507;27;96685;-65
2023/08/11 01:34:30;;;;;;;;;12.00;12.00;;;;;17.48;100.00;99306.06;6298964;27;98393;-65
2023/08/11 01:37:34;;;;;;;;;12.40;10.60;;;;;17.45;100.00;99312.00;6298508;27;96325;-65
2023/08/11 01:40:38;;;;;;;;;13.00;12.00;;;;;17.39;100.00;99311.13;6315701;27;96381;-65
2023/08/11 01:43:43;;;;;;;;;11.00;10.50;;;;;17.38;100.00;99311.38;6314124;27;96412;-65
2023/08/11 01:46:48;;;;;;;;;13.00;12.00;;;;;17.39;100.00;99304.88;6307961;27;96348;-65
2023/08/11 01:49:53;;;;;;;;;12.00;10.00;;;;;17.33;100.00;99312.16;6315334;27;96438;-65
2023/08/11 01:52:57;;;;;;;;;12.20;11.00;;;;;17.27;100.00;99308.53;6314984;27;96592;-65
2023/08/11 01:56:02;;;;;;;;;12.00;10.80;;;;;17.28;100.00;99309.38;6313814;27;96241;-65
2023/08/11 01:59:12;;;;;;;;;12.00;11.00;;;;;17.24;100.00;99305.50;6311218;27;96238;-65
2023/08/11 02:02:16;;;;;;;;;11.50;10.50;;;;;17.20;100.00;99313.34;6310677;27;96610;-65
2023/08/11 02:05:20;;;;;;;;;11.00;10.00;;;;;17.19;100.00;99303.56;6295703;27;98451;-65
2023/08/11 02:08:23;;;;;;;;;10.00;9.60;;;;;17.18;100.00;99309.25;6296623;27;96380;-65
2023/08/11 02:11:28;;;;;;;;;9.80;8.20;;;;;17.19;100.00;99306.28;6295548;27;96676;-65
2023/08/11 02:14:32;;;;;;;;;13.00;12.00;;;;;17.14;100.00;99306.22;6296237;27;96336;-65
2023/08/11 02:17:35;;;;;;;;;10.20;10.00;;;;;17.14;100.00;99308.94;6295756;27;98799;-65
2023/08/11 02:20:41;;;;;;;;;11.25;10.25;;;;;17.15;100.00;99313.28;6274107;27;97268;-65
2023/08/11 02:23:44;;;;;;;;;10.40;10.00;;;;;17.14;100.00;99311.66;6311843;27;96362;-65
2023/08/11 02:26:49;;;;;;;;;9.00;9.00;;;;;17.11;100.00;99314.88;6300952;27;96291;-65
2023/08/11 02:29:52;;;;;;;;;12.00;10.60;;;;;17.07;100.00;99316.47;6310563;27;96344;-65
2023/08/11 02:32:55;;;;;;;;;12.50;12.00;;;;;17.09;100.00;99310.78;6279564;27;96386;-65
2023/08/11 02:35:58;;;;;;;;;12.00;11.40;;;;;17.03;100.00;99315.31;6314467;27;96387;-65
2023/08/11 02:39:01;;;;;;;;;9.50;9.50;;;;;17.04;100.00;99314.25;6292159;27;96852;-65
2023/08/11 02:42:06;;;;;;;;;11.00;11.00;;;;;16.99;100.00;99316.91;6313988;27;96961;-65
2023/08/11 02:45:11;;;;;;;;;9.00;9.00;;;;;17.01;100.00;99317.47;6302558;27;97003;-65
2023/08/11 02:48:14;;;;;;;;;10.40;9.60;;;;;16.98;100.00;99314.44;6298771;27;96321;-65
2023/08/11 02:51:18;;;;;;;;;9.00;8.00;;;;;16.94;100.00;99311.41;6309686;27;96883;-65
2023/08/11 02:54:21;;;;;;;;;8.40;8.40;;;;;16.99;100.00;99306.03;6302497;27;96321;-65
2023/08/11 02:57:25;;;;;;;;;9.00;7.40;;;;;16.98;100.00;99312.53;6292041;27;96297;-65
2023/08/11 03:00:28;;;;;;;;;12.00;12.00;;;;;16.99;100.00;99321.53;6295549;27;96862;-65
2023/08/11 03:03:32;;;;;;;;;11.00;10.00;;;;;16.99;100.00;99319.63;6292322;27;96811;-65
2023/08/11 03:06:35;;;;;;;;;12.20;11.80;;;;;16.99;100.00;99321.53;6294654;27;96421;-65
2023/08/11 03:09:39;;;;;;;;;9.00;9.00;;;;;16.97;100.00;99326.41;6312539;27;96431;-65
2023/08/11 03:12:44;;;;;;;;;12.00;12.00;;;;;16.95;100.00;99332.13;6307264;27;96276;-65
2023/08/11 03:15:47;;;;;;;;;10.20;9.00;;;;;16.91;100.00;99330.94;6297308;27;96607;-64
2023/08/11 03:18:50;;;;;;;;;12.00;11.00;;;;;16.85;100.00;99330.09;6286767;27;97020;-65
2023/08/11 03:21:54;;;;;;;;;11.50;11.00;;;;;16.81;100.00;99331.63;6293608;27;96305;-64
2023/08/11 03:24:57;;;;;;;;;11.40;10.40;;;;;16.78;100.00;99326.72;6311703;27;96350;-65
2023/08/11 03:28:03;;;;;;;;;11.20;11.00;;;;;16.83;100.00;99334.13;6277807;27;96425;-64
2023/08/11 03:31:07;;;;;;;;;11.00;11.00;;;;;16.86;100.00;99330.88;6299697;27;96391;-65
2023/08/11 03:34:15;;;;;;;;;10.00;9.40;;;;;16.85;100.00;99329.25;6309787;27;96289;-65
2023/08/11 03:37:18;;;;;;;;;9.50;9.00;;;;;16.79;100.00;99339.25;6311768;27;96326;-65
2023/08/11 03:40:21;;;;;;;;;9.40;7.60;;;;;16.78;100.00;99336.78;6310436;27;96369;-65
2023/08/11 03:43:29;;;;;;;;;9.00;9.00;;;;;16.74;100.00;99352.78;6277789;27;96953;-65
2023/08/11 03:46:32;;;;;;;;;10.00;10.00;;;;;16.75;100.00;99345.44;6311228;27;96464;-65
2023/08/11 03:49:36;;;;;;;;;9.00;9.00;;;;;16.79;100.00;99349.31;6294679;27;96863;-64
2023/08/11 03:52:40;;;;;;;;;10.60;10.00;;;;;16.76;100.00;99349.84;6313753;27;96280;-65
2023/08/11 03:55:43;;;;;;;;;10.25;9.00;;;;;16.74;100.00;99344.63;6294779;27;96400;-65
2023/08/11 03:58:48;;;;;;;;;9.60;9.00;;;;;16.76;100.00;99353.34;6298053;27;96263;-65
2023/08/11 04:01:52;;;;;;;;;10.00;9.80;;;;;16.74;100.00;99365.59;6308002;27;96633;-65
2023/08/11 04:04:55;;;;;;;;;10.00;9.75;;;;;16.80;100.00;99361.88;6283966;27;96667;-65
2023/08/11 04:07:58;;;;;;;;;11.00;10.40;;;;;16.80;100.00;99357.25;6294050;27;96791;-65
2023/08/11 04:11:02;;;;;;;;;9.40;9.00;;;;;16.79;100.00;99354.75;6295162;27;96310;-65
2023/08/11 04:14:07;;;;;;;;;9.60;9.00;;;;;16.81;100.00;99360.78;6310340;27;96557;-65
2023/08/11 04:17:13;;;;;;;;;9.50;9.00;;;;;16.78;100.00;99367.56;6316386;27;96643;-65
2023/08/11 04:20:17;;;;;;;;;9.00;8.33;;;;;16.91;100.00;99358.19;6300416;27;96326;-65
2023/08/11 04:23:21;;;;;;;;;11.00;11.00;;;;;16.99;100.00;99360.50;6317728;27;96070;-65
2023/08/11 04:26:24;;;;;;;;;9.00;9.00;;;;;17.03;100.00;99358.91;6288142;27;96640;-65
2023/08/11 04:29:29;;;;;;;;;10.80;10.00;;;;;17.18;100.00;99361.84;6312781;27;96183;-65
2023/08/11 04:32:32;;;;;;;;;11.60;11.00;;;;;17.30;100.00;99354.34;6277523;27;96691;-65
2023/08/11 04:35:35;;;;;;;;;12.00;11.00;;;;;17.42;100.00;99367.03;6295888;27;97151;-65
2023/08/11 04:38:40;;;;;;;;;14.40;13.00;;;;;17.41;100.00;99368.94;6294774;27;96637;-65
2023/08/11 04:41:44;;;;;;;;;11.00;11.00;;;;;17.49;100.00;99364.94;6312857;27;96243;-65
2023/08/11 04:44:48;;;;;;;;;10.00;9.00;;;;;17.56;100.00;99376.47;6281405;27;96700;-66
2023/08/11 04:47:52;;;;;;;;;11.00;11.00;;;;;17.61;100.00;99379.28;6313736;27;96328;-66
2023/08/11 04:50:56;;;;;;;;;12.60;12.60;;;;;17.58;100.00;99379.78;6313915;27;96252;-65
2023/08/11 04:54:03;;;;;;;;;11.60;11.60;;;;;17.62;100.00;99379.03;6299565;27;96840;-65
2023/08/11 04:57:06;;;;;;;;;11.00;10.00;;;;;17.70;100.00;99384.03;6317311;27;96281;-65
2023/08/11 05:00:14;;;;;;;;;9.60;9.00;;;;;17.69;100.00;99385.09;6298368;27;96445;-66
2023/08/11 05:03:18;;;;;;;;;10.20;9.20;;;;;17.62;100.00;99383.66;6312066;27;96346;-65
2023/08/11 05:06:22;;;;;;;;;11.40;10.40;;;;;17.77;100.00;99394.75;6315960;27;96262;-65
2023/08/11 05:09:25;;;;;;;;;11.00;10.00;;;;;17.82;100.00;99397.53;6316265;27;96936;-65
2023/08/11 05:12:28;;;;;;;;;12.80;12.00;;;;;17.96;100.00;99392.47;6316008;27;96263;-64
2023/08/11 05:15:35;;;;;;;;;12.40;12.00;;;;;18.10;100.00;99399.16;6280247;27;96274;-65
2023/08/11 05:18:38;;;;;;;;;11.00;11.00;;;;;18.18;100.00;99404.97;6317465;27;96381;-66
2023/08/11 05:21:46;;;;;;;;;11.00;10.00;;;;;18.27;100.00;99405.34;6297986;27;98478;-65
2023/08/11 05:24:50;;;;;;;;;14.40;13.40;;;;;18.26;100.00;99409.16;6316018;27;96947;-65
2023/08/11 05:27:53;;;;;;;;;11.25;10.25;;;;;18.36;100.00;99405.69;6315445;27;96250;-65
2023/08/11 05:30:57;;;;;;;;;13.00;12.00;;;;;18.41;100.00;99408.47;6317384;27;96509;-65
2023/08/11 05:34:01;;;;;;;;;13.00;12.20;;;;;18.45;100.00;99404.97;6296659;27;98626;-65
2023/08/11 05:37:05;;;;;;;;;13.00;12.80;;;;;18.45;100.00;99409.59;6315751;27;96425;-65
2023/08/11 05:40:09;;;;;;;;;11.00;10.00;;;;;18.40;100.00;99406.81;6314358;27;96553;-65
2023/08/11 05:43:13;;;;;;;;;11.00;10.00;;;;;18.53;100.00;99407.22;6296151;27;96794;-65
2023/08/11 05:46:17;;;;;;;;;13.00;12.00;;;;;18.57;100.00;99413.00;6317294;27;96258;-65
2023/08/11 05:49:20;;;;;;;;;10.25;10.00;;;;;18.60;100.00;99412.47;6313717;27;96944;-64
2023/08/11 05:52:24;;;;;;;;;12.00;11.00;;;;;18.72;100.00;99410.38;6316954;27;96365;-65
2023/08/11 05:55:27;;;;;;;;;11.00;11.00;;;;;18.86;100.00;99405.31;6292829;27;96639;-65
2023/08/11 05:58:30;;;;;;;;;10.00;10.00;;;;;19.04;100.00;99410.34;6316306;27;96518;-65
2023/08/11 06:01:34;;;;;;;;;12.00;11.00;;;;;19.20;100.00;99412.09;6280799;27;96662;-65
2023/08/11 06:04:37;;;;;;;;;9.00;8.00;;;;;19.32;100.00;99417.31;6291221;27;96326;-65
2023/08/11 06:07:41;;;;;;;;;11.00;10.00;;;;;19.48;100.00;99407.31;6313525;27;96719;-65
2023/08/11 06:10:58;;;;;;;;;11.00;10.75;;;;;19.52;100.00;99414.72;6317061;27;96323;-65
2023/08/11 06:14:01;;;;;;;;;12.00;11.00;;;;;19.59;100.00;99409.00;6298876;27;96843;-65
2023/08/11 06:17:05;;;;;;;;;10.20;9.20;;;;;19.76;100.00;99401.41;6316879;27;96912;-65
2023/08/11 06:20:13;;;;;;;;;12.00;11.00;;;;;19.87;100.00;99403.91;6304518;27;96760;-65
2023/08/11 06:23:28;;;;;;;;;12.40;12.40;;;;;19.88;100.00;99411.03;6297647;27;97292;-65
2023/08/11 06:26:31;;;;;;;;;14.00;13.00;;;;;20.02;100.00;99410.50;6318232;27;96381;-65
2023/08/11 06:29:34;;;;;;;;;13.40;12.00;;;;;20.24;100.00;99405.59;6316287;27;96336;-65
2023/08/11 06:32:39;;;;;;;;;15.50;15.00;;;;;20.45;100.00;99412.78;6299640;27;97182;-65
2023/08/11 06:35:43;;;;;;;;;14.60;12.40;;;;;20.47;100.00;99409.78;6298442;27;96327;-65
2023/08/11 06:38:46;;;;;;;;;14.00;13.00;;;;;20.64;100.00;99421.25;6300617;27;96363;-65
2023/08/11 06:41:49;;;;;;;;;11.60;9.80;;;;;20.80;100.00;99420.16;6299650;27;96702;-65
2023/08/11 06:45:13;;;;;;;;;13.40;11.40;;;;;20.91;100.00;99423.72;6290813;27;96740;-65
2023/08/11 06:48:17;;;;;;;;;13.00;13.00;;;;;21.23;100.00;99417.94;6318201;27;96297;-65
2023/08/11 06:51:20;;;;;;;;;11.00;10.00;;;;;21.45;100.00;99421.97;6282472;27;97156;-65
2023/08/11 06:54:23;;;;;;;;;14.25;13.25;;;;;21.78;100.00;99422.41;6318597;27;96347;-65
2023/08/11 06:57:27;;;;;;;;;12.00;12.00;;;;;22.02;100.00;99429.72;6317248;27;96882;-65
2023/08/11 07:00:30;;;;;;;;;10.00;9.00;;;;;22.17;100.00;99420.56;6318214;27;96330;-65
2023/08/11 07:03:35;;;;;;;;;10.40;9.40;;;;;22.40;100.00;99425.34;6300466;27;96410;-65
2023/08/11 07:06:38;;;;;;;;;11.00;11.00;;;;;22.46;100.00;99434.38;6319162;27;96387;-65
2023/08/11 07:09:41;;;;;;;;;12.00;11.50;;;;;22.65;100.00;99431.75;6318995;27;96729;-65
2023/08/11 07:12:44;;;;;;;;;14.00;13.50;;;;;22.77;100.00;99434.97;6318553;27;96418;-65
2023/08/11 07:15:47;;;;;;;;;10.00;9.60;;;;;22.97;100.00;99433.97;6309717;27;96298;-65
2023/08/11 07:18:52;;;;;;;;;12.60;12.00;;;;;23.06;100.00;99434.97;6318872;27;96387;-65
2023/08/11 07:21:55;;;;;;;;;13.00;11.00;;;;;23.12;100.00;99444.81;6312593;27;96297;-65
2023/08/11 07:24:58;;;;;;;;;10.00;10.00;;;;;23.33;100.00;99446.25;6300665;27;98785;-65
2023/08/11 07:28:02;;;;;;;;;10.00;9.60;;;;;23.51;100.00;99445.50;6319023;27;96885;-65
2023/08/11 07:31:05;;;;;;;;;9.25;9.00;;;;;23.90;100.00;99447.22;6280313;27;96702;-65
2023/08/11 07:34:09;;;;;;;;;8.80;8.60;;;;;24.35;100.00;99448.56;6318822;27;96815;-65
2023/08/11 07:37:12;;;;;;;;;11.00;10.00;;;;;24.76;100.00;99449.59;6318602;27;96620;-64
2023/08/11 07:40:16;;;;;;;;;11.25;11.00;;;;;24.74;100.00;99446.28;6318032;27;96386;-64
2023/08/11 07:43:19;;;;;;;;;9.25;9.25;;;;;24.90;100.00;99438.63;6302209;27;96382;-65
2023/08/11 07:46:22;;;;;;;;;11.00;10.00;;;;;24.96;100.00;99443.75;6291268;27;96921;-64
2023/08/11 07:49:27;;;;;;;;;12.00;10.00;;;;;25.12;100.00;99451.75;6312674;27;96384;-64
2023/08/11 07:52:30;;;;;;;;;8.75;8.00;;;;;25.35;100.00;99450.78;6276575;27;98155;-63
2023/08/11 07:55:34;;;;;;;;;10.00;9.00;;;;;25.56;100.00;99440.97;6314490;27;96171;-63
2023/08/11 07:58:37;;;;;;;;;10.00;9.60;;;;;25.79;100.00;99441.91;6289005;27;98940;-63
2023/08/11 08:01:41;;;;;;;;;10.50;10.00;;;;;26.03;100.00;99436.97;6275195;27;96757;-64
2023/08/11 08:04:46;;;;;;;;;14.00;13.00;;;;;26.21;100.00;99440.69;6275526;27;96715;-64
2023/08/11 08:07:49;;;;;;;;;11.00;10.25;;;;;26.37;100.00;99442.03;6316306;27;96318;-64
2023/08/11 08:10:52;;;;;;;;;8.00;8.00;;;;;26.63;100.00;99442.25;6319426;27;96308;-64
2023/08/11 08:13:55;;;;;;;;;8.25;8.25;;;;;26.78;100.00;99438.28;6306939;27;96312;-64
2023/08/11 08:17:01;;;;;;;;;10.40;9.00;;;;;26.79;100.00;99432.41;6301823;27;96407;-64
2023/08/11 08:20:08;;;;;;;;;11.40;11.00;;;;;26.92;100.00;99433.53;6319700;27;96074;-64
2023/08/11 08:23:12;;;;;;;;;12.00;10.60;;;;;26.90;100.00;99439.38;6318387;27;96310;-64
2023/08/11 08:26:16;;;;;;;;;12.00;11.00;;;;;27.06;100.00;99445.31;6301299;27;99186;-64
2023/08/11 08:29:20;;;;;;;;;9.40;9.40;;;;;27.21;97.72;99442.16;6319023;27;96361;-64
2023/08/11 08:32:23;;;;;;;;;11.60;11.60;;;;;27.44;97.03;99449.28;6293224;27;96368;-64
2023/08/11 08:35:27;;;;;;;;;10.50;10.00;;;;;27.72;98.44;99441.56;6318483;27;96341;-64
2023/08/11 08:38:30;;;;;;;;;9.00;8.20;;;;;27.91;96.01;99444.88;6307440;27;97042;-64
2023/08/11 08:41:38;;;;;;;;;11.00;11.00;;;;;28.19;92.49;99445.47;6295860;27;98442;-64
2023/08/11 08:44:43;;;;;;;;;10.00;9.40;;;;;28.38;91.37;99439.63;6317665;27;96946;-64
2023/08/11 08:47:48;;;;;;;;;8.00;7.80;;;;;28.78;92.02;99441.06;6318250;27;96336;-64
2023/08/11 08:50:53;;;;;;;;;8.80;8.20;;;;;29.06;84.50;99441.53;6319361;27;97381;-64
2023/08/11 08:53:57;;;;;;;;;7.00;7.00;;;;;29.15;79.83;99441.50;6319144;27;96341;-64
2023/08/11 08:57:01;;;;;;;;;6.00;6.00;;;;;29.27;81.66;99447.19;6293687;27;96466;-64
2023/08/11 09:00:05;;;;;;;;;7.40;7.40;;;;;29.42;75.09;99440.31;6319099;27;96758;-64
2023/08/11 09:03:08;;;;;;;;;9.00;8.00;;;;;29.63;78.89;99447.56;6321710;27;96312;-64
2023/08/11 09:06:13;;;;;;;;;7.00;7.00;;;;;29.87;69.25;99440.56;6305574;27;96344;-64
2023/08/11 09:09:17;;;;;;;;;8.00;6.00;;;;;30.07;61.79;99445.38;6301818;27;96381;-64
2023/08/11 09:12:20;;;;;;;;;9.00;8.00;;;;;30.23;71.24;99443.66;6296797;27;96902;-64
2023/08/11 09:15:23;;;;;;;;;5.00;5.00;;;;;30.51;70.09;99443.94;6327246;27;96331;-64
2023/08/11 09:18:27;;;;;;;;;5.80;5.80;;;;;30.72;60.80;99446.72;6323219;27;96322;-64
2023/08/11 09:21:32;;;;;;;;;4.00;3.00;;;;;30.96;59.87;99436.47;6322968;27;96169;-64
2023/08/11 09:24:35;;;;;;;;;5.75;5.75;;;;;31.15;58.13;99435.97;6322951;27;96338;-64
2023/08/11 09:27:38;;;;;;;;;5.00;5.00;;;;;31.21;56.29;99433.78;6300534;27;96731;-64
2023/08/11 09:30:42;;;;;;;;;6.00;6.00;;;;;31.05;58.83;99436.41;6322593;27;96288;-64
2023/08/11 09:33:46;;;;;;;;;5.00;5.00;;;;;31.29;57.94;99439.25;6322851;27;96253;-64
2023/08/11 09:36:51;;;;;;;;;4.50;4.00;;;;;31.33;55.61;99429.03;6304738;27;96691;-65
2023/08/11 09:39:56;;;;;;;;;5.50;5.00;;;;;31.31;52.86;99431.38;6307462;27;96312;-65
2023/08/11 09:42:59;;;;;;;;;6.40;6.00;;;;;31.50;52.22;99443.94;6322856;27;96641;-64
2023/08/11 09:46:03;;;;;;;;;5.00;5.00;;;;;31.79;53.14;99436.19;6287264;27;98474;-64
2023/08/11 09:49:07;;;;;;;;;6.00;5.00;;;;;31.93;50.73;99429.44;6322645;27;96314;-65
2023/08/11 09:52:13;;;;;;;;;5.75;5.00;;;;;32.00;44.20;99432.47;6288039;27;96344;-65
2023/08/11 09:55:17;;;;;;;;;4.00;4.00;;;;;32.04;41.41;99436.16;6322598;27;96961;-65
2023/08/11 09:58:25;;;;;;;;;4.00;4.00;;;;;32.07;42.43;99425.13;6296002;27;98518;-65
2023/08/11 10:01:30;;;;;;;;;4.00;4.00;;;;;32.13;42.04;99429.31;6286352;27;98433;-65
2023/08/11 10:04:38;;;;;;;;;4.00;3.60;;;;;32.26;44.55;99424.53;6313913;27;96882;-65
2023/08/11 10:07:44;;;;;;;;;4.00;4.00;;;;;32.18;39.82;99425.47;6322077;27;96439;-65
2023/08/11 10:10:47;;;;;;;;;4.00;3.40;;;;;31.64;41.08;99425.75;6303365;27;96779;-65
2023/08/11 10:13:51;;;;;;;;;3.75;3.75;;;;;31.60;47.27;99413.66;6321378;27;96287;-65
2023/08/11 10:16:55;;;;;;;;;5.00;5.00;;;;;31.55;41.70;99425.00;6301771;27;98028;-65
2023/08/11 10:20:04;;;;;;;;;4.40;4.40;;;;;31.20;37.67;99429.38;6321455;27;96505;-65
2023/08/11 10:23:09;;;;;;;;;4.00;4.00;;;;;31.05;42.98;99422.50;6305180;27;96335;-65
2023/08/11 10:26:13;;;;;;;;;4.40;4.00;;;;;31.01;40.71;99426.28;6270212;27;96718;-65
2023/08/11 10:29:17;;;;;;;;;3.25;3.25;;;;;31.01;39.17;99420.72;6321062;27;96342;-65
2023/08/11 10:32:23;;;;;;;;;3.60;3.60;;;;;31.26;47.36;99416.84;6294466;27;96264;-65
2023/08/11 10:35:34;;;;;;;;;3.00;3.00;;;;;31.51;43.93;99415.72;6303732;27;96670;-65
2023/08/11 10:38:38;;;;;;;;;4.00;3.00;;;;;31.51;45.08;99418.50;6303793;27;96372;-65
2023/08/11 10:41:45;;;;;;;;;4.75;4.00;;;;;31.52;39.89;99419.31;6300104;27;96937;-65
2023/08/11 10:44:51;;;;;;;;;4.00;3.00;;;;;31.57;40.67;99421.91;6277450;27;96782;-65
2023/08/11 10:47:55;;;;;;;;;4.00;3.00;;;;;31.94;41.40;99417.94;6319615;27;96396;-65
2023/08/11 10:51:01;;;;;;;;;3.00;3.00;;;;;32.23;38.68;99423.25;6303004;27;98558;-65
2023/08/11 10:54:12;;;;;;;;;3.00;3.00;;;;;32.58;40.02;99415.13;6303696;27;99183;-65
2023/08/11 10:57:16;;;;;;;;;4.00;3.20;;;;;32.95;40.65;99412.19;6320663;27;96346;-65
2023/08/11 11:00:19;;;;;;;;;5.25;5.25;;;;;32.96;36.04;99411.03;6313491;27;97443;-65
2023/08/11 11:03:23;;;;;;;;;5.60;5.00;;;;;33.04;38.61;99412.81;6296069;27;96655;-65
2023/08/11 11:06:27;;;;;;;;;3.20;3.20;;;;;33.28;38.74;99407.09;6320250;27;96345;-65
2023/08/11 11:09:33;;;;;;;;;4.80;4.80;;;;;33.25;31.34;99404.22;6316848;27;96087;-65
2023/08/11 11:12:36;;;;;;;;;4.00;4.00;;;;;33.34;39.56;99408.47;6302859;27;98443;-65
2023/08/11 11:15:39;;;;;;;;;3.60;3.60;;;;;33.25;32.21;99399.47;6300610;27;97114;-65
2023/08/11 11:18:42;;;;;;;;;3.00;3.00;;;;;33.30;31.81;99402.00;6299386;27;97523;-65
2023/08/11 11:21:47;;;;;;;;;4.00;4.00;;;;;33.38;34.81;99405.78;6298552;27;98712;-65
2023/08/11 11:24:52;;;;;;;;;4.00;3.00;;;;;33.71;30.88;99399.84;6302517;27;97077;-65
2023/08/11 11:27:56;;;;;;;;;3.80;3.80;;;;;33.82;30.42;99395.28;6296621;27;97680;-65
2023/08/11 11:30:59;;;;;;;;;4.00;4.00;;;;;33.73;32.07;99386.28;6310205;27;96252;-65
2023/08/11 11:34:03;;;;;;;;;3.00;2.50;;;;;33.78;28.31;99383.22;6302626;27;98366;-65
2023/08/11 11:37:07;;;;;;;;;3.40;3.00;;;;;33.50;30.38;99384.13;6294542;27;96231;-65
2023/08/11 11:40:13;;;;;;;;;5.00;4.50;;;;;33.42;29.86;99381.53;6299819;27;96852;-65
2023/08/11 11:43:18;;;;;;;;;3.00;3.00;;;;;33.17;29.31;99378.09;6303148;27;96685;-65
2023/08/11 11:46:22;;;;;;;;;4.00;4.00;;;;;33.13;28.51;99387.53;6292702;27;96287;-65
2023/08/11 11:49:25;;;;;;;;;4.00;4.00;;;;;33.27;28.94;99388.75;6274762;27;98373;-65
2023/08/11 11:52:32;;;;;;;;;4.00;3.20;;;;;33.18;27.47;99390.91;6320331;27;96610;-65
2023/08/11 11:55:45;;;;;;;;;3.75;3.00;;;;;33.16;30.52;99384.03;6319633;27;96628;-65
2023/08/11 11:58:51;;;;;;;;;3.00;3.00;;;;;33.24;27.56;99383.03;6302507;27;96332;-65
2023/08/11 12:01:59;;;;;;;;;3.00;3.00;;;;;33.33;28.26;99384.47;6315805;27;96227;-65
2023/08/11 12:05:04;;;;;;;;;4.00;4.00;;;;;33.00;25.79;99393.19;6284132;27;96839;-65
2023/08/11 12:08:18;;;;;;;;;3.60;3.00;;;;;32.85;27.87;99381.97;6302138;27;96623;-65
2023/08/11 12:11:25;;;;;;;;;3.00;3.00;;;;;32.89;29.96;99386.50;6300163;27;98569;-65
2023/08/11 12:14:28;;;;;;;;;3.00;2.60;;;;;33.23;32.33;99387.84;6315442;27;96363;-65
2023/08/11 12:17:32;;;;;;;;;3.00;3.00;;;;;33.57;31.22;99386.31;6315410;27;96346;-65
2023/08/11 12:20:37;;;;;;;;;4.25;4.00;;;;;33.82;31.42;99392.50;6299712;27;96644;-65
2023/08/11 12:23:40;;;;;;;;;3.00;3.00;;;;;33.96;28.99;99390.03;6317987;27;96691;-65
2023/08/11 12:26:45;;;;;;;;;4.00;3.40;;;;;34.21;32.84;99390.63;6299634;27;96770;-65
2023/08/11 12:29:48;;;;;;;;;2.00;2.00;;;;;34.51;28.81;99390.84;6299216;27;96302;-65
2023/08/11 12:32:51;;;;;;;;;3.00;3.00;;;;;34.15;24.95;99390.06;6302041;27;96742;-65
2023/08/11 12:35:55;;;;;;;;;5.00;4.50;;;;;33.81;27.87;99388.09;6324128;27;96358;-65
2023/08/11 12:38:58;;;;;;;;;3.40;3.00;;;;;33.42;27.59;99379.53;6323568;27;96328;-65
2023/08/11 12:42:02;;;;;;;;;3.00;3.00;;;;;33.57;30.92;99380.72;6322002;27;96340;-65
2023/08/11 12:45:07;;;;;;;;;3.00;3.00;;;;;33.70;27.48;99390.63;6323775;27;96306;-65
2023/08/11 12:48:10;;;;;;;;;5.00;4.00;;;;;33.57;29.97;99385.47;6305103;27;98440;-65
2023/08/11 12:51:13;;;;;;;;;3.00;3.00;;;;;33.75;32.66;99389.53;6322737;27;96927;-65
2023/08/11 12:54:17;;;;;;;;;3.00;3.00;;;;;33.81;29.29;99385.28;6279861;27;96963;-65
2023/08/11 12:57:22;;;;;;;;;2.20;2.20;;;;;33.91;27.52;99379.94;6298963;27;96704;-65
2023/08/11 13:00:25;;;;;;;;;3.00;2.25;;;;;33.64;26.33;99368.88;6288258;27;96783;-65
2023/08/11 13:03:29;;;;;;;;;3.80;3.80;;;;;33.56;24.87;99378.25;6305913;27;97154;-65
2023/08/11 13:06:32;;;;;;;;;4.00;3.00;;;;;33.31;27.28;99378.47;6323722;27;96457;-65
2023/08/11 13:09:35;;;;;;;;;4.00;4.00;;;;;32.51;28.61;99373.03;6304881;27;96727;-65
2023/08/11 13:12:40;;;;;;;;;3.00;3.00;;;;;32.08;30.11;99382.13;6312349;27;96841;-65
2023/08/11 13:15:45;;;;;;;;;3.00;3.00;;;;;32.09;29.40;99371.78;6327337;27;96299;-65
2023/08/11 13:18:48;;;;;;;;;4.40;4.00;;;;;32.07;28.75;99368.50;6303628;27;98594;-65
2023/08/11 13:21:51;;;;;;;;;4.00;3.60;;;;;32.17;30.51;99368.88;6323337;27;96498;-65
2023/08/11 13:24:54;;;;;;;;;3.40;3.40;;;;;32.43;33.01;99357.28;6305634;27;96243;-65
2023/08/11 13:27:59;;;;;;;;;2.80;2.80;;;;;32.72;32.04;99366.47;6323567;27;96321;-65
2023/08/11 13:31:02;;;;;;;;;3.00;2.40;;;;;32.78;28.36;99365.88;6296925;27;96261;-65
2023/08/11 13:34:05;;;;;;;;;3.00;3.00;;;;;32.54;27.58;99366.78;6322421;27;96323;-65
2023/08/11 13:37:09;;;;;;;;;3.00;2.00;;;;;32.56;29.89;99363.59;6305779;27;96322;-65
2023/08/11 13:40:12;;;;;;;;;4.00;4.00;;;;;32.72;28.99;99364.50;6306203;27;96671;-65
2023/08/11 13:43:19;;;;;;;;;3.00;3.00;;;;;32.59;29.86;99362.91;6322282;27;96026;-65
2023/08/11 13:46:22;;;;;;;;;2.50;2.50;;;;;32.69;28.97;99365.22;6296362;27;97507;-65
2023/08/11 13:49:25;;;;;;;;;4.60;3.60;;;;;32.75;29.39;99369.34;6316180;27;96297;-65
2023/08/11 13:52:28;;;;;;;;;3.00;3.00;;;;;32.67;27.49;99359.97;6322809;27;97000;-65
2023/08/11 13:55:32;;;;;;;;;4.00;3.50;;;;;32.43;28.21;99351.69;6322552;27;96312;-65
2023/08/11 13:58:37;;;;;;;;;3.00;2.00;;;;;32.51;29.00;99358.28;6295431;27;99014;-65
2023/08/11 14:01:41;;;;;;;;;3.00;3.00;;;;;32.60;29.75;99354.16;6312675;27;97058;-65
2023/08/11 14:04:44;;;;;;;;;3.20;3.00;;;;;32.66;29.17;99358.34;6310180;27;96402;-65
2023/08/11 14:07:49;;;;;;;;;4.40;4.40;;;;;32.84;30.54;99346.88;6304323;27;96295;-65
2023/08/11 14:10:53;;;;;;;;;4.00;4.00;;;;;33.18;30.10;99345.38;6322208;27;96309;-65
2023/08/11 14:13:59;;;;;;;;;3.80;3.80;;;;;33.40;29.77;99344.72;6327508;27;97674;-65